Twin Groves, Idaho
Current Conditions -  °F | °C
As of 5:53 PM on Friday 28 Nov 2014 (Local Time) from KRXE Reporting Station
Few Clouds Few Clouds  
Wind Chill: 43°   Ceiling: Unl
Heat Index: 49°   Visibility: 10mi
Dew Point: 20°   Wind: 15mph
Humidity: 32%   Direction: 210°SSW
Pressure: 29.7"   Gusts: NA
Location:  44.2887°N, 111.507°W
Report Text: KRXE 290053Z AUTO 21013KT 10SM FEW120 09/M07 A2970 RMK AO2 SLP048 T00941067
Loading
Personal Weather Stations






























Interactive Weather Map New forecast layout! Learn more

10-Day Weather Forecast

Advertisements
Track Severe Weather on mobile